Terminal Aerodrome Forecast
Issued by NWS

Home | Current Version | Previous Version | Text Only | Print | Product List | Glossary On
Versions: 1 2 3 4 5 6 7 8 9 10 11 12 13 14 15 16
000
FTAK31 PAJN 031100
TAFAGY
TAF
PAGY 031130Z 0312/0412 00000KT P6SM BKN120
     FM031800 21006KT P6SM -RA BKN050 OVC100
     FM032100 21008G18KT P6SM -RA SCT025 OVC050
     FM040000 21011KT P6SM -RA SCT020 OVC040
     FM040600 21008KT P6SM -SN SCT015 OVC035
      AMD LTD TO CLD VIS AND WIND=

USA.gov is the U.S. government's official web portal to all federal, state and local government web resources and services.